Time;durP1;ratioP1;P1;durP2;ratioP2;P2;SDS_P1;SDS_P2;PMS_P1;PMS_P2;Temp;Humidity;BMP_temperature;BMP_pressure;BME280_temperature;BME280_humidity;BME280_pressure;Samples;Min_cycle;Max_cycle;Signal;HPM_P1;HPM_P2
2021/12/03 00:00:15;;;;;;;19.03;7.83;;;;;;;6.81;100.00;99109.55;1653890;85;21065;-70
2021/12/03 00:02:42;;;;;;;20.88;7.17;;;;;;;6.81;100.00;99116.78;1625819;88;21141;-71
2021/12/03 00:05:09;;;;;;;19.57;8.27;;;;;;;6.80;100.00;99114.61;1600025;90;21028;-71
2021/12/03 00:07:40;;;;;;;20.87;8.33;;;;;;;6.81;100.00;99120.81;1651682;87;21094;-69
2021/12/03 00:10:07;;;;;;;22.07;8.43;;;;;;;6.81;100.00;99110.06;1652013;87;21066;-71
2021/12/03 00:12:34;;;;;;;19.07;7.57;;;;;;;6.80;100.00;99110.58;1652113;87;21067;-70
2021/12/03 00:15:01;;;;;;;20.77;7.87;;;;;;;6.82;100.00;99113.93;1652015;87;21079;-72
2021/12/03 00:17:27;;;;;;;19.97;7.73;;;;;;;6.82;100.00;99103.69;1652109;87;21120;-71
2021/12/03 00:19:54;;;;;;;19.70;8.27;;;;;;;6.82;100.00;99095.12;1640186;87;21099;-71
2021/12/03 00:22:21;;;;;;;22.83;8.87;;;;;;;6.82;100.00;99096.47;1634658;88;21551;-70
2021/12/03 00:24:48;;;;;;;20.20;7.90;;;;;;;6.83;100.00;99091.44;1634393;88;21090;-70
2021/12/03 00:27:14;;;;;;;22.57;7.90;;;;;;;6.86;100.00;99096.13;1634703;88;21091;-70
2021/12/03 00:29:41;;;;;;;22.00;7.57;;;;;;;6.86;100.00;99090.75;1634570;88;21089;-72
2021/12/03 00:32:08;;;;;;;18.20;6.90;;;;;;;6.85;100.00;99087.20;1634580;88;21115;-71
2021/12/03 00:34:35;;;;;;;17.63;7.50;;;;;;;6.86;100.00;99090.75;1655408;87;21064;-72
2021/12/03 00:37:04;;;;;;;15.87;7.67;;;;;;;6.84;100.00;99086.37;1656591;87;21062;-69
2021/12/03 00:39:30;;;;;;;20.97;7.63;;;;;;;6.83;100.00;99086.55;1656355;87;21091;-70
2021/12/03 00:42:01;;;;;;;19.30;7.73;;;;;;;6.82;100.00;99085.72;1656087;87;21549;-70
2021/12/03 00:44:30;;;;;;;18.27;7.50;;;;;;;6.82;100.00;99087.57;1656461;87;21116;-70
2021/12/03 00:46:58;;;;;;;17.87;7.97;;;;;;;6.82;100.00;99088.92;1656388;87;21113;-70
2021/12/03 00:49:25;;;;;;;20.67;7.90;;;;;;;6.80;100.00;99087.73;1634293;87;21047;-71
2021/12/03 00:51:52;;;;;;;20.13;7.80;;;;;;;6.80;100.00;99100.34;1656096;87;21082;-71
2021/12/03 00:54:21;;;;;;;20.40;8.27;;;;;;;6.80;100.00;99090.42;1661069;86;21074;-71
2021/12/03 00:56:47;;;;;;;20.80;8.37;;;;;;;6.79;100.00;99081.19;1668159;86;21061;-70
2021/12/03 00:59:14;;;;;;;20.37;7.97;;;;;;;6.79;100.00;99085.22;1716603;80;21009;-71
2021/12/03 01:01:41;;;;;;;18.87;8.00;;;;;;;6.78;100.00;99086.21;1784371;80;21020;-71
2021/12/03 01:04:08;;;;;;;21.27;7.87;;;;;;;6.77;100.00;99085.90;1784996;80;21024;-70
2021/12/03 01:06:34;;;;;;;20.77;8.07;;;;;;;6.76;100.00;99096.30;1784667;80;20974;-71
2021/12/03 01:09:04;;;;;;;15.83;7.13;;;;;;;6.73;100.00;99089.43;1784451;80;21084;-71
2021/12/03 01:11:30;;;;;;;19.83;8.00;;;;;;;6.73;100.00;99078.68;1784768;80;21100;-71
2021/12/03 01:14:00;;;;;;;19.77;8.03;;;;;;;6.73;100.00;99083.19;1784494;80;21044;-71
2021/12/03 01:16:28;;;;;;;22.57;8.00;;;;;;;6.72;100.00;99084.22;1784781;80;21488;-69
2021/12/03 01:18:55;;;;;;;18.67;8.13;;;;;;;6.72;100.00;99082.36;1784712;80;20950;-70
2021/12/03 01:21:22;;;;;;;19.90;8.50;;;;;;;6.73;100.00;99079.16;1750671;80;21039;-71
2021/12/03 01:23:49;;;;;;;20.30;8.30;;;;;;;6.72;100.00;99086.39;1750565;82;21489;-70
2021/12/03 01:26:16;;;;;;;18.10;7.80;;;;;;;6.70;100.00;99079.53;1750569;82;21512;-70
2021/12/03 01:28:43;;;;;;;19.30;8.83;;;;;;;6.69;100.00;99081.35;1750212;82;21054;-70
2021/12/03 01:31:10;;;;;;;19.30;8.07;;;;;;;6.70;100.00;99089.77;1750543;82;21523;-70
2021/12/03 01:33:37;;;;;;;16.63;8.00;;;;;;;6.70;100.00;99080.88;1721033;82;20998;-71
2021/12/03 01:36:05;;;;;;;17.97;8.77;;;;;;;6.68;100.00;99083.72;1750826;82;20963;-72
2021/12/03 01:38:32;;;;;;;19.43;8.47;;;;;;;6.68;100.00;99067.60;1750353;82;21554;-71
2021/12/03 01:40:58;;;;;;;20.87;8.23;;;;;;;6.68;100.00;99074.83;1750616;82;21006;-73
2021/12/03 01:43:26;;;;;;;19.77;9.10;;;;;;;6.70;100.00;99062.06;1750558;82;21026;-70
2021/12/03 01:45:57;;;;;;;20.03;8.70;;;;;;;6.71;100.00;99074.47;1750642;82;21038;-72
2021/12/03 01:48:25;;;;;;;22.87;9.23;;;;;;;6.72;100.00;99077.50;1702194;84;21030;-70
2021/12/03 01:50:52;;;;;;;19.60;7.73;;;;;;;6.73;100.00;99081.37;1701905;84;21038;-72
2021/12/03 01:53:23;;;;;;;17.70;8.07;;;;;;;6.74;100.00;99081.69;1702013;84;21560;-73
2021/12/03 01:55:50;;;;;;;16.73;8.07;;;;;;;6.76;100.00;99072.95;1740584;82;21062;-71
2021/12/03 01:58:17;;;;;;;20.80;8.33;;;;;;;6.78;100.00;99072.78;1677680;85;21056;-70
2021/12/03 02:00:51;;;;;;;19.77;8.20;;;;;;;6.78;100.00;99065.58;1744136;82;21516;-71
2021/12/03 02:03:18;;;;;;;20.77;8.50;;;;;;;6.79;100.00;99085.22;1722260;83;21552;-71
2021/12/03 02:05:45;;;;;;;19.40;8.97;;;;;;;6.82;100.00;99088.41;1722076;83;21097;-71
2021/12/03 02:08:13;;;;;;;19.93;9.70;;;;;;;6.83;100.00;99076.66;1722313;83;21058;-72
2021/12/03 02:10:40;;;;;;;17.83;8.27;;;;;;;6.85;100.00;99079.14;1722214;83;21143;-71
2021/12/03 02:13:07;;;;;;;14.80;7.80;;;;;;;6.85;100.00;99080.49;1722451;83;21540;-71
2021/12/03 02:15:34;;;;;;;17.87;8.00;;;;;;;6.86;100.00;99085.38;1722192;83;21150;-71
2021/12/03 02:18:02;;;;;;;17.27;8.30;;;;;;;6.86;100.00;99086.73;1721951;83;21102;-72
2021/12/03 02:20:29;;;;;;;16.90;7.50;;;;;;;6.84;100.00;99068.91;1711663;83;21577;-70
2021/12/03 02:22:56;;;;;;;16.73;7.97;;;;;;;6.83;100.00;99087.41;1705425;84;21088;-70
2021/12/03 02:25:23;;;;;;;20.57;8.70;;;;;;;6.82;100.00;99091.60;1705701;84;21491;-69
2021/12/03 02:27:53;;;;;;;16.67;8.60;;;;;;;6.79;100.00;99088.73;1705779;84;21061;-69
2021/12/03 02:30:20;;;;;;;19.37;8.60;;;;;;;6.80;100.00;99094.97;1705660;84;21079;-70
2021/12/03 02:32:49;;;;;;;18.93;7.60;;;;;;;6.78;100.00;99089.77;1708953;83;20979;-71
2021/12/03 02:35:18;;;;;;;18.77;8.10;;;;;;;6.78;100.00;99086.21;1685318;85;21062;-70
2021/12/03 02:37:45;;;;;;;16.80;7.20;;;;;;;6.78;100.00;99097.83;1670506;86;21526;-71
2021/12/03 02:40:14;;;;;;;16.93;7.40;;;;;;;6.78;100.00;99092.45;1685164;84;21635;-71
2021/12/03 02:42:43;;;;;;;17.13;7.37;;;;;;;6.77;100.00;99095.30;1670509;86;21556;-71
2021/12/03 02:45:12;;;;;;;16.33;7.33;;;;;;;6.76;100.00;99090.92;1682651;85;21489;-70
2021/12/03 02:47:39;;;;;;;15.77;7.37;;;;;;;6.76;100.00;99097.64;1746180;82;21027;-70
2021/12/03 02:50:08;;;;;;;17.90;8.00;;;;;;;6.74;100.00;99091.09;1746147;82;21509;-72
2021/12/03 02:52:36;;;;;;;15.87;7.37;;;;;;;6.74;100.00;99089.74;1746305;82;21055;-72
2021/12/03 02:55:04;;;;;;;16.30;7.63;;;;;;;6.73;100.00;99086.74;1735348;82;21042;-71
2021/12/03 02:57:32;;;;;;;19.17;7.50;;;;;;;6.73;100.00;99090.77;1725593;83;21038;-72
2021/12/03 02:59:59;;;;;;;20.33;7.57;;;;;;;6.71;100.00;99096.83;1757949;80;21017;-71
2021/12/03 03:02:26;;;;;;;20.13;7.87;;;;;;;6.71;100.00;99095.48;1790216;80;20998;-70
2021/12/03 03:04:53;;;;;;;16.00;8.27;;;;;;;6.71;100.00;99092.80;1789967;80;21012;-71
2021/12/03 03:07:20;;;;;;;16.43;7.33;;;;;;;6.70;100.00;99094.30;1790618;80;20993;-71
2021/12/03 03:09:47;;;;;;;18.73;7.67;;;;;;;6.69;100.00;99086.72;1790171;80;21479;-71
2021/12/03 03:12:14;;;;;;;17.20;7.27;;;;;;;6.69;100.00;99096.64;1790098;80;21052;-71
2021/12/03 03:14:58;;;;;;;17.97;7.40;;;;;;;6.68;100.00;99099.01;1790249;80;21021;-73
2021/12/03 03:17:26;;;;;;;17.12;7.58;;;;;;;6.68;100.00;99078.86;1790599;80;20992;-70
2021/12/03 03:19:54;;;;;;;20.63;8.27;;;;;;;6.64;100.00;99093.97;1790051;80;20986;-70
2021/12/03 03:22:22;;;;;;;19.10;7.80;;;;;;;6.63;100.00;99086.91;1790216;80;20955;-71
2021/12/03 03:24:49;;;;;;;20.37;8.07;;;;;;;6.62;100.00;99110.77;1770607;80;21025;-71
2021/12/03 03:27:16;;;;;;;22.40;8.30;;;;;;;6.63;100.00;99106.22;1789966;80;21007;-71
2021/12/03 03:29:44;;;;;;;26.37;8.47;;;;;;;6.64;100.00;99105.23;1770670;80;21054;-71
2021/12/03 03:32:11;;;;;;;21.17;8.70;;;;;;;6.65;100.00;99110.41;1790426;80;20971;-72
2021/12/03 03:34:38;;;;;;;20.70;8.57;;;;;;;6.65;100.00;99109.06;1789980;80;21003;-71
2021/12/03 03:37:06;;;;;;;18.30;7.80;;;;;;;6.64;100.00;99109.25;1790023;80;20998;-71
2021/12/03 03:39:34;;;;;;;18.70;8.17;;;;;;;6.62;100.00;99109.91;1790094;80;21015;-72
2021/12/03 03:42:01;;;;;;;19.27;8.27;;;;;;;6.61;100.00;99108.24;1752562;82;21045;-70
2021/12/03 03:44:28;;;;;;;22.77;9.10;;;;;;;6.60;100.00;99118.63;1790022;80;21062;-71
2021/12/03 03:46:55;;;;;;;20.80;8.37;;;;;;;6.57;100.00;99108.22;1790382;80;21006;-71
2021/12/03 03:49:23;;;;;;;23.47;9.60;;;;;;;6.56;100.00;99105.22;1790171;80;21639;-71
2021/12/03 03:51:50;;;;;;;22.47;9.23;;;;;;;6.54;100.00;99116.13;1752766;82;21512;-71
2021/12/03 03:54:17;;;;;;;23.67;8.93;;;;;;;6.54;100.00;99117.47;1790634;78;21003;-72
2021/12/03 03:56:45;;;;;;;21.70;8.60;;;;;;;6.53;100.00;99124.34;1758428;82;21068;-71
2021/12/03 03:59:11;;;;;;;18.37;8.07;;;;;;;6.53;100.00;99135.09;1758432;81;20998;-72
2021/12/03 04:01:38;;;;;;;22.43;8.87;;;;;;;6.53;100.00;99129.72;1750071;80;21502;-70
2021/12/03 04:04:05;;;;;;;17.60;8.10;;;;;;;6.54;100.00;99128.21;1727390;83;20992;-69
2021/12/03 04:06:31;;;;;;;21.50;9.17;;;;;;;6.53;100.00;99135.09;1727236;83;21055;-72
2021/12/03 04:08:58;;;;;;;21.93;9.57;;;;;;;6.54;100.00;99132.75;1727081;83;21072;-71
2021/12/03 04:11:26;;;;;;;21.43;8.43;;;;;;;6.54;100.00;99133.58;1727091;83;21064;-71
2021/12/03 04:13:52;;;;;;;20.47;8.73;;;;;;;6.54;100.00;99129.55;1727204;83;21089;-71
2021/12/03 04:16:19;;;;;;;22.43;9.20;;;;;;;6.55;100.00;99129.91;1727336;83;21052;-71
2021/12/03 04:18:47;;;;;;;20.23;9.00;;;;;;;6.54;100.00;99132.75;1727251;83;21554;-71
2021/12/03 04:21:15;;;;;;;20.53;8.63;;;;;;;6.54;100.00;99124.18;1727291;83;20985;-71
2021/12/03 04:23:42;;;;;;;17.57;7.80;;;;;;;6.57;100.00;99131.91;1727194;83;21051;-70
2021/12/03 04:26:10;;;;;;;18.63;7.93;;;;;;;6.59;100.00;99129.06;1726821;83;21060;-70
2021/12/03 04:28:39;;;;;;;20.00;7.73;;;;;;;6.59;100.00;99129.89;1726965;83;21561;-70
2021/12/03 04:31:06;;;;;;;18.23;8.80;;;;;;;6.59;100.00;99125.03;1727403;83;21068;-70
2021/12/03 04:33:32;;;;;;;21.37;8.03;;;;;;;6.60;100.00;99128.03;1740489;82;21512;-72
2021/12/03 04:35:59;;;;;;;19.93;8.03;;;;;;;6.60;100.00;99115.44;1726311;82;21007;-69
2021/12/03 04:38:27;;;;;;;18.67;7.83;;;;;;;6.61;100.00;99131.07;1752975;82;21500;-72
2021/12/03 04:40:55;;;;;;;20.10;8.30;;;;;;;6.63;100.00;99136.59;1752981;82;21524;-71
2021/12/03 04:43:22;;;;;;;23.80;9.20;;;;;;;6.65;100.00;99128.38;1752768;82;21525;-71
2021/12/03 04:45:49;;;;;;;20.40;8.10;;;;;;;6.67;100.00;99124.18;1752883;82;21034;-70
2021/12/03 04:48:17;;;;;;;22.77;8.83;;;;;;;6.68;100.00;99132.08;1753012;82;20991;-70
2021/12/03 04:50:44;;;;;;;22.53;8.97;;;;;;;6.67;100.00;99130.90;1752955;82;21063;-70
2021/12/03 04:53:11;;;;;;;23.07;9.53;;;;;;;6.67;100.00;99131.73;1752940;82;21026;-71
2021/12/03 04:55:38;;;;;;;25.53;9.83;;;;;;;6.65;100.00;99132.41;1746096;82;21007;-70
2021/12/03 04:58:05;;;;;;;25.23;10.07;;;;;;;6.62;100.00;99131.39;1709906;84;21037;-71
2021/12/03 05:00:40;;;;;;;24.13;10.53;;;;;;;6.60;100.00;99134.75;1691431;85;21062;-70
2021/12/03 05:03:08;;;;;;;23.10;9.67;;;;;;;6.56;100.00;99125.36;1709907;83;21086;-72
2021/12/03 05:05:36;;;;;;;23.03;8.77;;;;;;;6.52;100.00;99130.23;1691396;85;21528;-70
2021/12/03 05:08:08;;;;;;;24.67;9.87;;;;;;;6.48;100.00;99128.03;1709805;83;21026;-71
2021/12/03 05:10:39;;;;;;;23.60;9.60;;;;;;;6.44;100.00;99124.84;1690940;85;21580;-73
2021/12/03 05:13:09;;;;;;;20.73;8.93;;;;;;;6.41;100.00;99127.38;1605074;89;21104;-73
2021/12/03 05:15:36;;;;;;;19.83;8.80;;;;;;;6.37;100.00;99127.34;1653634;87;21115;-70
2021/12/03 05:18:04;;;;;;;21.60;8.40;;;;;;;6.35;100.00;99136.08;1654011;87;21047;-70
2021/12/03 05:20:30;;;;;;;20.30;8.83;;;;;;;6.35;100.00;99133.91;1657702;86;21006;-69
2021/12/03 05:22:59;;;;;;;23.10;8.77;;;;;;;6.31;100.00;99131.22;1657476;87;21007;-72
2021/12/03 05:25:26;;;;;;;21.10;8.57;;;;;;;6.31;100.00;99132.56;1705543;84;21093;-72
2021/12/03 05:27:53;;;;;;;22.13;8.90;;;;;;;6.30;100.00;99127.67;1681653;84;21094;-71
2021/12/03 05:30:20;;;;;;;21.93;8.07;;;;;;;6.30;100.00;99131.70;1705212;84;21041;-72
2021/12/03 05:32:47;;;;;;;25.87;9.50;;;;;;;6.30;100.00;99130.36;1700978;84;21514;-70
2021/12/03 05:35:16;;;;;;;21.00;8.10;;;;;;;6.27;100.00;99130.20;1685467;85;21168;-71
2021/12/03 05:37:43;;;;;;;23.90;8.20;;;;;;;6.29;100.00;99127.87;1685459;85;21557;-72
2021/12/03 05:40:11;;;;;;;19.33;7.60;;;;;;;6.30;100.00;99130.88;1685578;85;21008;-71
2021/12/03 05:42:38;;;;;;;24.47;10.47;;;;;;;6.30;100.00;99129.53;1685476;85;21016;-72
2021/12/03 05:45:07;;;;;;;25.93;11.93;;;;;;;6.30;100.00;99139.75;1685306;85;21029;-70
2021/12/03 05:47:35;;;;;;;22.20;9.27;;;;;;;6.30;100.00;99142.44;1685458;85;21125;-72
2021/12/03 05:50:02;;;;;;;20.30;8.20;;;;;;;6.30;100.00;99141.09;1685635;85;21498;-71
2021/12/03 05:52:29;;;;;;;19.23;7.50;;;;;;;6.32;100.00;99143.62;1685350;85;21004;-72
2021/12/03 05:54:56;;;;;;;19.57;8.20;;;;;;;6.33;100.00;99142.63;1685628;85;20988;-73
2021/12/03 05:57:23;;;;;;;17.80;7.60;;;;;;;6.32;100.00;99147.65;1689685;84;21110;-73
2021/12/03 05:59:50;;;;;;;16.00;5.80;;;;;;;6.34;100.00;99147.84;1689920;85;21020;-71
2021/12/03 06:02:17;;;;;;;15.83;6.13;;;;;;;6.34;100.00;99141.13;1689981;85;21047;-73
2021/12/03 06:04:43;;;;;;;16.03;7.10;;;;;;;6.37;100.00;99143.45;1689983;85;21016;-72
2021/12/03 06:07:11;;;;;;;16.37;6.93;;;;;;;6.39;100.00;99144.16;1690204;85;21004;-72
2021/12/03 06:09:39;;;;;;;14.97;6.60;;;;;;;6.41;100.00;99149.34;1728406;81;21117;-72
2021/12/03 06:12:07;;;;;;;18.33;6.90;;;;;;;6.42;100.00;99154.55;1780258;79;21002;-72
2021/12/03 06:14:35;;;;;;;12.97;5.17;;;;;;;6.45;100.00;99151.53;1779801;81;21492;-73
2021/12/03 06:17:01;;;;;;;16.80;5.70;;;;;;;6.49;100.00;99153.89;1780267;81;20982;-71
2021/12/03 06:19:29;;;;;;;13.23;5.80;;;;;;;6.52;100.00;99142.83;1783184;80;21072;-72
2021/12/03 06:21:56;;;;;;;13.57;6.30;;;;;;;6.55;100.00;99147.84;1796028;80;21026;-72
2021/12/03 06:24:25;;;;;;;17.17;6.43;;;;;;;6.58;100.00;99142.97;1796087;80;21548;-72
2021/12/03 06:26:51;;;;;;;20.63;7.50;;;;;;;6.60;100.00;99142.81;1795974;80;21026;-72
2021/12/03 06:29:18;;;;;;;18.37;7.30;;;;;;;6.62;100.00;99138.97;1796422;80;21002;-73
2021/12/03 06:31:45;;;;;;;19.93;7.03;;;;;;;6.63;100.00;99139.28;1796065;79;21531;-71
2021/12/03 06:34:12;;;;;;;18.80;8.17;;;;;;;6.66;100.00;99143.50;1794103;80;21016;-69
2021/12/03 06:36:39;;;;;;;18.07;6.90;;;;;;;6.71;100.00;99134.92;1793805;80;21059;-71
2021/12/03 06:39:06;;;;;;;19.17;8.57;;;;;;;6.74;100.00;99138.11;1794042;80;21015;-70
2021/12/03 06:41:33;;;;;;;16.37;7.70;;;;;;;6.77;100.00;99131.57;1794013;80;21493;-71
2021/12/03 06:44:00;;;;;;;15.53;6.97;;;;;;;6.82;100.00;99133.25;1794133;80;21015;-69
2021/12/03 06:46:27;;;;;;;13.20;6.80;;;;;;;6.87;100.00;99135.41;1793623;80;20996;-70
2021/12/03 06:48:55;;;;;;;14.97;5.87;;;;;;;6.90;100.00;99125.16;1793338;80;21027;-68
2021/12/03 06:51:22;;;;;;;13.73;6.10;;;;;;;6.94;100.00;99125.18;1794103;80;21508;-70
2021/12/03 06:54:03;;;;;;;13.80;5.00;;;;;;;6.97;100.00;99127.50;1793738;80;20976;-71
2021/12/03 06:56:33;;;;;;;12.67;5.10;;;;;;;7.02;100.00;99127.84;1785688;80;21526;-70
2021/12/03 06:58:55;;;;;;;12.87;5.47;;;;;;;7.09;100.00;99127.17;1783700;80;21032;-70
2021/12/03 07:01:22;;;;;;;13.90;7.20;;;;;;;7.17;100.00;99118.58;1788178;80;21059;-68
2021/12/03 07:03:49;;;;;;;15.53;5.97;;;;;;;7.29;100.00;99116.34;1788134;80;21569;-68
2021/12/03 07:06:15;;;;;;;15.03;5.53;;;;;;;7.39;100.00;99107.58;1788089;80;21016;-72
2021/12/03 07:08:42;;;;;;;10.67;5.00;;;;;;;7.47;100.00;99098.66;1788292;80;21020;-71
2021/12/03 07:11:09;;;;;;;15.53;5.57;;;;;;;7.57;100.00;99100.61;1787511;80;21043;-71
2021/12/03 07:13:36;;;;;;;15.70;5.10;;;;;;;7.66;100.00;99087.14;1787984;80;21031;-72
2021/12/03 07:16:05;;;;;;;13.37;5.40;;;;;;;7.76;100.00;99080.52;1788394;80;21032;-72
2021/12/03 07:18:32;;;;;;;15.10;5.10;;;;;;;7.86;100.00;99071.37;1788732;80;21004;-72
2021/12/03 07:20:59;;;;;;;13.27;5.67;;;;;;;7.98;100.00;99060.54;1790517;80;20964;-71
2021/12/03 07:23:26;;;;;;;19.37;6.93;;;;;;;8.04;100.00;99061.67;1790011;80;20995;-70
2021/12/03 07:25:52;;;;;;;13.73;5.63;;;;;;;8.08;100.00;99051.73;1790212;80;20976;-71
2021/12/03 07:28:19;;;;;;;15.37;7.43;;;;;;;8.11;100.00;99049.17;1789612;80;20994;-71
2021/12/03 07:30:46;;;;;;;14.80;6.20;;;;;;;8.16;100.00;99052.16;1789572;80;21020;-71
2021/12/03 07:33:16;;;;;;;15.20;5.77;;;;;;;8.18;100.00;99055.54;1790066;80;21491;-70
2021/12/03 07:35:44;;;;;;;14.10;5.37;;;;;;;8.14;100.00;99044.78;1785595;80;21049;-70
2021/12/03 07:38:12;;;;;;;15.17;5.90;;;;;;;8.14;100.00;99049.68;1789761;80;20969;-70
2021/12/03 07:40:39;;;;;;;20.63;7.20;;;;;;;8.14;100.00;99052.38;1789041;80;20996;-72
2021/12/03 07:43:06;;;;;;;19.20;6.70;;;;;;;8.14;100.00;99042.09;1789635;80;21039;-69
2021/12/03 07:45:34;;;;;;;12.40;5.60;;;;;;;8.14;100.00;99059.59;1789460;80;21050;-69
2021/12/03 07:48:01;;;;;;;14.10;5.63;;;;;;;8.12;100.00;99073.23;1789749;80;21032;-68
2021/12/03 07:50:27;;;;;;;11.80;4.70;;;;;;;8.15;100.00;99072.05;1787613;80;20999;-68
2021/12/03 07:52:55;;;;;;;13.20;5.37;;;;;;;8.13;100.00;99080.30;1787915;79;21037;-68
2021/12/03 07:55:22;;;;;;;14.17;5.87;;;;;;;8.13;100.00;99091.59;1789388;80;21025;-69
2021/12/03 07:57:48;;;;;;;11.73;5.10;;;;;;;8.12;100.00;99089.38;1794321;78;21009;-68
2021/12/03 08:00:15;;;;;;;11.83;5.13;;;;;;;8.12;100.00;99099.33;1794942;80;20993;-69
2021/12/03 08:02:43;;;;;;;10.80;4.00;;;;;;;8.08;100.00;99086.73;1794785;80;21071;-68
2021/12/03 08:05:09;;;;;;;10.87;4.83;;;;;;;8.06;100.00;99088.77;1795414;80;20985;-70
2021/12/03 08:07:39;;;;;;;14.40;5.30;;;;;;;8.04;100.00;99080.52;1795353;80;21084;-69
2021/12/03 08:10:07;;;;;;;13.80;5.03;;;;;;;8.01;100.00;99094.36;1795070;80;20999;-69
2021/12/03 08:12:34;;;;;;;13.87;5.10;;;;;;;7.99;100.00;99102.09;1794156;80;20975;-68
2021/12/03 08:15:04;;;;;;;19.20;7.17;;;;;;;8.01;100.00;99105.12;1795375;79;21030;-69
2021/12/03 08:17:31;;;;;;;14.63;7.07;;;;;;;8.02;100.00;99098.70;1756996;82;21007;-69
2021/12/03 08:19:59;;;;;;;14.80;6.33;;;;;;;8.05;100.00;99105.92;1735385;82;20985;-70
2021/12/03 08:22:25;;;;;;;11.83;5.30;;;;;;;8.09;100.00;99103.23;1733169;82;20999;-71
2021/12/03 08:24:52;;;;;;;15.27;5.40;;;;;;;8.16;100.00;99103.33;1734682;82;22047;-69
2021/12/03 08:27:19;;;;;;;13.37;5.80;;;;;;;8.19;100.00;99101.63;1748672;81;21017;-71
2021/12/03 08:29:46;;;;;;;20.90;7.27;;;;;;;8.23;100.00;99097.55;1742101;81;21539;-71
2021/12/03 08:32:13;;;;;;;13.07;4.93;;;;;;;8.21;100.00;99106.33;1745746;81;21007;-71
2021/12/03 08:34:40;;;;;;;29.87;12.40;;;;;;;8.21;100.00;99107.67;1744878;81;21338;-73
2021/12/03 08:39:38;;;;;;;24.00;10.00;;;;;;;8.21;100.00;99104.98;1671460;84;20995;-74
2021/12/03 08:42:07;;;;;;;18.50;7.23;;;;;;;8.17;100.00;99101.80;1670468;84;21046;-73
2021/12/03 08:44:35;;;;;;;14.73;6.03;;;;;;;8.15;100.00;99103.84;1670956;85;21030;-73
2021/12/03 08:47:07;;;;;;;17.73;7.63;;;;;;;8.14;100.00;99099.98;1670992;85;21042;-72
2021/12/03 08:49:50;;;;;;;12.87;5.57;;;;;;;8.13;100.00;99100.50;1673715;85;21427;-69
2021/12/03 08:57:17;;;;;;;13.60;5.33;;;;;;;8.22;100.00;99083.78;1561306;90;21068;-69
2021/12/03 08:59:44;;;;;;;17.03;6.30;;;;;;;8.24;100.00;99088.98;1566495;91;21069;-74
2021/12/03 09:02:11;;;;;;;14.33;6.30;;;;;;;8.24;100.00;99084.43;1548494;92;21060;-76
2021/12/03 09:04:38;;;;;;;14.27;5.60;;;;;;;8.26;100.00;99069.44;1598803;88;21105;-71
2021/12/03 09:07:05;;;;;;;13.50;5.30;;;;;;;8.29;100.00;99082.56;1594786;89;21064;-72
2021/12/03 09:09:32;;;;;;;14.60;6.40;;;;;;;8.33;100.00;99080.66;1603395;88;21045;-71
2021/12/03 09:11:59;;;;;;;20.80;8.17;;;;;;;8.36;100.00;99076.26;1607243;89;21129;-72
2021/12/03 09:14:33;;;;;;;14.93;6.10;;;;;;;8.44;100.00;99073.20;1601121;89;21107;-70
2021/12/03 09:19:51;;;;;;;14.20;6.00;;;;;;;8.58;100.00;99071.06;1600208;89;20984;-74
2021/12/03 09:22:12;;;;;;;14.23;5.97;;;;;;;8.67;100.00;99071.83;1600206;88;21026;-73
2021/12/03 09:24:38;;;;;;;17.33;6.63;;;;;;;8.71;100.00;99074.47;1604858;88;21104;-70
2021/12/03 09:27:06;;;;;;;12.27;5.37;;;;;;;8.74;100.00;99078.98;1599680;88;21618;-71
2021/12/03 09:29:35;;;;;;;12.20;4.60;;;;;;;8.79;100.00;99066.32;1605957;88;21098;-69
2021/12/03 09:32:01;;;;;;;11.03;4.70;;;;;;;8.82;100.00;99064.61;1650636;82;20995;-72
2021/12/03 09:34:32;;;;;;;11.63;6.00;;;;;;;8.84;100.00;99055.83;1722969;82;21017;-70
2021/12/03 09:36:57;;;;;;;22.70;9.17;;;;;;;8.86;100.00;99062.39;1770068;79;20957;-70
2021/12/03 09:39:24;;;;;;;23.27;11.60;;;;;;;8.86;100.00;99055.64;1790175;79;21675;-71
2021/12/03 09:41:54;;;;;;;17.63;5.67;;;;;;;8.83;100.00;99058.18;1792092;79;21047;-70
2021/12/03 09:44:21;;;;;;;12.50;4.97;;;;;;;8.80;100.00;99056.37;1791370;79;21005;-70
2021/12/03 09:46:48;;;;;;;12.07;4.70;;;;;;;8.79;100.00;99068.19;1788279;80;20949;-69
2021/12/03 10:26:25;;;;;;;18.27;6.60;;;;;;;10.39;100.00;99016.16;1470635;97;21058;-68
2021/12/03 10:45:16;;;;;;;13.15;6.28;;;;;;;10.95;100.00;99006.69;1481566;95;21171;-70
2021/12/03 11:12:56;;;;;;;12.68;5.22;;;;;;;11.56;100.00;98995.63;1471331;96;21069;-70
2021/12/03 11:15:57;;;;;;;18.98;6.28;;;;;;;11.52;100.00;98980.84;1469112;96;21101;-72
2021/12/03 11:39:46;;;;;;;15.43;6.08;;;;;;;10.61;100.00;98979.95;1509981;94;21177;-71
2021/12/03 12:11:13;;;;;;;19.48;6.70;;;;;;;10.70;100.00;98960.36;1670111;85;21065;-69
2021/12/03 12:42:14;;;;;;;11.50;5.58;;;;;;;10.78;100.00;98966.98;1651220;86;20988;-70
2021/12/03 14:00:55;;;;;;;15.95;7.22;;;;;;;9.26;100.00;98936.16;1712151;83;21052;-69
2021/12/03 14:43:24;;;;;;;17.90;8.70;;;;;;;8.77;100.00;98924.16;1543737;92;21150;-71
2021/12/03 14:53:59;;;;;;;14.87;8.00;;;;;;;8.65;100.00;98941.30;1559214;90;21561;-74
2021/12/03 14:56:16;;;;;;;19.93;9.50;;;;;;;8.62;100.00;98930.88;1579620;90;21095;-72
2021/12/03 14:58:50;;;;;;;23.67;11.93;;;;;;;8.59;100.00;98930.42;1574671;90;21131;-72
2021/12/03 15:01:25;;;;;;;21.70;7.97;;;;;;;8.55;100.00;98918.69;1586504;90;21575;-70
2021/12/03 15:06:33;;;;;;;18.27;8.20;;;;;;;8.51;100.00;98925.97;1564838;91;21104;-74
2021/12/03 15:09:10;;;;;;;17.87;7.93;;;;;;;8.49;100.00;98924.80;1582742;90;21076;-74
2021/12/03 15:25:06;;;;;;;17.67;9.40;;;;;;;8.40;100.00;98923.19;1605785;89;21554;-74
2021/12/03 15:30:18;;;;;;;23.57;10.23;;;;;;;8.39;100.00;98922.85;1611444;88;21106;-71
2021/12/03 15:35:41;;;;;;;24.63;8.83;;;;;;;8.40;100.00;98923.71;1603285;88;21026;-71
2021/12/03 16:10:52;;;;;;;24.70;9.27;;;;;;;8.30;100.00;98906.45;1769802;80;20987;-72
2021/12/03 16:53:20;;;;;;;21.07;9.27;;;;;;;7.83;100.00;98929.12;1696680;85;21029;-74
2021/12/03 16:55:52;;;;;;;18.90;8.83;;;;;;;7.80;100.00;98937.03;1696621;85;21045;-72
2021/12/03 16:58:09;;;;;;;21.27;8.50;;;;;;;7.79;100.00;98950.14;1695942;82;21022;-74
2021/12/03 17:00:47;;;;;;;25.37;9.07;;;;;;;7.78;100.00;98943.93;1693743;85;21546;-73
2021/12/03 17:03:15;;;;;;;16.60;7.40;;;;;;;7.79;100.00;98943.41;1697187;83;21049;-73
2021/12/03 17:16:53;;;;;;;18.20;8.17;;;;;;;7.83;100.00;98960.06;1692534;85;20999;-75
2021/12/03 17:51:47;;;;;;;19.63;7.77;;;;;;;7.85;100.00;98980.39;1695586;85;21555;-74
2021/12/03 17:56:54;;;;;;;20.33;7.97;;;;;;;7.93;100.00;98984.86;1696158;85;21055;-73
2021/12/03 17:59:26;;;;;;;18.23;7.37;;;;;;;7.95;100.00;98978.30;1709237;83;21062;-73
2021/12/03 18:02:09;;;;;;;17.43;6.93;;;;;;;7.98;100.00;98985.16;1777040;79;21478;-71
2021/12/03 18:04:42;;;;;;;21.03;7.23;;;;;;;8.01;100.00;98986.67;1787768;80;21036;-73
2021/12/03 18:09:54;;;;;;;17.77;7.30;;;;;;;8.04;100.00;98979.56;1711979;82;21581;-73
2021/12/03 18:15:15;;;;;;;18.33;8.57;;;;;;;8.08;100.00;98984.94;1711929;84;21030;-74
2021/12/03 18:45:12;;;;;;;23.63;9.57;;;;;;;8.40;100.00;98979.76;1722090;83;20982;-74
2021/12/03 18:47:52;;;;;;;23.10;10.67;;;;;;;8.41;100.00;98980.10;1752558;81;21018;-73
2021/12/03 18:52:54;;;;;;;19.70;7.73;;;;;;;8.46;100.00;98991.69;1772859;81;21014;-74
2021/12/03 18:57:46;;;;;;;18.70;7.80;;;;;;;8.52;100.00;98981.02;1682105;84;21011;-74
2021/12/03 19:00:16;;;;;;;19.50;7.70;;;;;;;8.54;100.00;98979.49;1670387;85;21088;-74
2021/12/03 19:02:47;;;;;;;20.37;8.07;;;;;;;8.58;100.00;98983.48;1669625;86;21113;-73
2021/12/03 19:05:19;;;;;;;20.63;7.80;;;;;;;8.60;100.00;98982.78;1670142;86;21037;-73
2021/12/03 19:08:03;;;;;;;17.87;7.50;;;;;;;8.63;100.00;98985.64;1669730;86;21123;-72
2021/12/03 19:10:23;;;;;;;23.77;8.07;;;;;;;8.66;100.00;98998.23;1669897;86;21045;-74
2021/12/03 19:13:02;;;;;;;19.20;7.40;;;;;;;8.68;100.00;99000.23;1669819;86;21077;-74
2021/12/03 19:15:26;;;;;;;24.07;7.90;;;;;;;8.69;100.00;99000.56;1669835;86;21547;-74
2021/12/03 19:17:53;;;;;;;20.57;7.70;;;;;;;8.71;100.00;99004.40;1669743;86;21021;-74